sensor_id;sensor_type;location;lat;lon;timestamp;P1;durP1;ratioP1;P2;durP2;ratioP2
67378;SDS011;54262;44.642;-0.974;2023-04-24T00:01:10;7.30;;;1.77;;
67378;SDS011;54262;44.642;-0.974;2023-04-24T00:03:38;2.88;;;1.65;;
67378;SDS011;54262;44.642;-0.974;2023-04-24T00:06:04;4.03;;;1.52;;
67378;SDS011;54262;44.642;-0.974;2023-04-24T00:08:33;4.47;;;1.70;;
67378;SDS011;54262;44.642;-0.974;2023-04-24T00:10:59;7.15;;;1.80;;
67378;SDS011;54262;44.642;-0.974;2023-04-24T00:13:28;2.50;;;1.13;;
67378;SDS011;54262;44.642;-0.974;2023-04-24T00:15:55;2.80;;;1.90;;
67378;SDS011;54262;44.642;-0.974;2023-04-24T00:18:21;6.97;;;1.65;;
67378;SDS011;54262;44.642;-0.974;2023-04-24T00:20:47;6.68;;;1.67;;
67378;SDS011;54262;44.642;-0.974;2023-04-24T00:23:13;6.35;;;1.60;;
67378;SDS011;54262;44.642;-0.974;2023-04-24T00:25:39;6.32;;;1.75;;
67378;SDS011;54262;44.642;-0.974;2023-04-24T00:28:05;3.50;;;1.40;;
67378;SDS011;54262;44.642;-0.974;2023-04-24T00:30:31;6.65;;;1.33;;
67378;SDS011;54262;44.642;-0.974;2023-04-24T00:32:57;6.75;;;1.60;;
67378;SDS011;54262;44.642;-0.974;2023-04-24T00:35:23;4.88;;;1.30;;
67378;SDS011;54262;44.642;-0.974;2023-04-24T00:37:53;8.55;;;1.73;;
67378;SDS011;54262;44.642;-0.974;2023-04-24T00:40:19;4.47;;;1.30;;
67378;SDS011;54262;44.642;-0.974;2023-04-24T00:42:48;9.18;;;1.65;;
67378;SDS011;54262;44.642;-0.974;2023-04-24T00:45:14;9.80;;;1.58;;
67378;SDS011;54262;44.642;-0.974;2023-04-24T00:47:40;12.07;;;1.67;;
67378;SDS011;54262;44.642;-0.974;2023-04-24T00:50:07;2.55;;;1.10;;
67378;SDS011;54262;44.642;-0.974;2023-04-24T00:52:33;3.45;;;1.10;;
67378;SDS011;54262;44.642;-0.974;2023-04-24T00:54:59;8.63;;;1.20;;
67378;SDS011;54262;44.642;-0.974;2023-04-24T00:57:28;5.20;;;1.13;;
67378;SDS011;54262;44.642;-0.974;2023-04-24T00:59:54;3.65;;;1.55;;
67378;SDS011;54262;44.642;-0.974;2023-04-24T01:02:23;5.18;;;1.30;;
67378;SDS011;54262;44.642;-0.974;2023-04-24T01:04:50;2.92;;;1.30;;
67378;SDS011;54262;44.642;-0.974;2023-04-24T01:07:18;3.70;;;1.42;;
67378;SDS011;54262;44.642;-0.974;2023-04-24T01:09:45;3.35;;;1.85;;
67378;SDS011;54262;44.642;-0.974;2023-04-24T01:12:14;1.90;;;0.93;;
67378;SDS011;54262;44.642;-0.974;2023-04-24T01:14:40;4.32;;;1.40;;
67378;SDS011;54262;44.642;-0.974;2023-04-24T01:17:09;1.95;;;1.40;;
67378;SDS011;54262;44.642;-0.974;2023-04-24T01:19:35;3.85;;;1.20;;
67378;SDS011;54262;44.642;-0.974;2023-04-24T01:22:02;2.40;;;1.75;;
67378;SDS011;54262;44.642;-0.974;2023-04-24T01:24:28;3.03;;;1.75;;
67378;SDS011;54262;44.642;-0.974;2023-04-24T01:26:54;4.35;;;1.38;;
67378;SDS011;54262;44.642;-0.974;2023-04-24T01:29:21;5.05;;;1.42;;
67378;SDS011;54262;44.642;-0.974;2023-04-24T01:31:47;3.97;;;1.48;;
67378;SDS011;54262;44.642;-0.974;2023-04-24T01:34:13;5.70;;;1.83;;
67378;SDS011;54262;44.642;-0.974;2023-04-24T01:36:39;4.40;;;1.88;;
67378;SDS011;54262;44.642;-0.974;2023-04-24T01:39:07;2.00;;;1.17;;
67378;SDS011;54262;44.642;-0.974;2023-04-24T01:41:33;2.42;;;1.40;;
67378;SDS011;54262;44.642;-0.974;2023-04-24T01:43:59;5.50;;;2.42;;
67378;SDS011;54262;44.642;-0.974;2023-04-24T01:46:25;2.50;;;2.10;;
67378;SDS011;54262;44.642;-0.974;2023-04-24T01:48:51;2.80;;;1.55;;
67378;SDS011;54262;44.642;-0.974;2023-04-24T01:51:18;4.45;;;1.60;;
67378;SDS011;54262;44.642;-0.974;2023-04-24T01:53:44;6.18;;;2.03;;
67378;SDS011;54262;44.642;-0.974;2023-04-24T01:56:10;2.28;;;2.08;;
67378;SDS011;54262;44.642;-0.974;2023-04-24T01:58:38;6.53;;;2.50;;
67378;SDS011;54262;44.642;-0.974;2023-04-24T02:01:06;2.90;;;2.42;;
67378;SDS011;54262;44.642;-0.974;2023-04-24T02:03:34;4.57;;;2.13;;
67378;SDS011;54262;44.642;-0.974;2023-04-24T02:06:00;5.43;;;2.40;;
67378;SDS011;54262;44.642;-0.974;2023-04-24T02:08:26;2.83;;;1.60;;
67378;SDS011;54262;44.642;-0.974;2023-04-24T02:10:52;3.05;;;2.45;;
67378;SDS011;54262;44.642;-0.974;2023-04-24T02:13:18;8.20;;;2.30;;
67378;SDS011;54262;44.642;-0.974;2023-04-24T02:15:44;3.53;;;2.15;;
67378;SDS011;54262;44.642;-0.974;2023-04-24T02:18:10;5.82;;;2.80;;
67378;SDS011;54262;44.642;-0.974;2023-04-24T02:20:37;3.63;;;2.17;;
67378;SDS011;54262;44.642;-0.974;2023-04-24T02:23:03;6.65;;;2.42;;
67378;SDS011;54262;44.642;-0.974;2023-04-24T02:25:30;3.53;;;2.65;;
67378;SDS011;54262;44.642;-0.974;2023-04-24T02:27:56;4.18;;;2.88;;
67378;SDS011;54262;44.642;-0.974;2023-04-24T02:30:25;3.60;;;2.40;;
67378;SDS011;54262;44.642;-0.974;2023-04-24T02:32:51;2.95;;;2.13;;
67378;SDS011;54262;44.642;-0.974;2023-04-24T02:35:17;10.63;;;3.10;;
67378;SDS011;54262;44.642;-0.974;2023-04-24T02:37:43;7.43;;;3.22;;
67378;SDS011;54262;44.642;-0.974;2023-04-24T02:40:09;9.52;;;3.17;;
67378;SDS011;54262;44.642;-0.974;2023-04-24T02:42:35;5.78;;;2.53;;
67378;SDS011;54262;44.642;-0.974;2023-04-24T02:45:01;8.18;;;3.00;;
67378;SDS011;54262;44.642;-0.974;2023-04-24T02:47:27;4.32;;;2.78;;
67378;SDS011;54262;44.642;-0.974;2023-04-24T02:49:53;6.75;;;2.88;;
67378;SDS011;54262;44.642;-0.974;2023-04-24T02:52:19;3.15;;;1.83;;
67378;SDS011;54262;44.642;-0.974;2023-04-24T02:54:45;7.53;;;2.13;;
67378;SDS011;54262;44.642;-0.974;2023-04-24T02:57:11;6.10;;;2.13;;
67378;SDS011;54262;44.642;-0.974;2023-04-24T02:59:40;3.53;;;1.50;;
67378;SDS011;54262;44.642;-0.974;2023-04-24T03:02:06;1.80;;;1.65;;
67378;SDS011;54262;44.642;-0.974;2023-04-24T03:04:34;2.45;;;1.60;;
67378;SDS011;54262;44.642;-0.974;2023-04-24T03:07:00;1.58;;;1.33;;
67378;SDS011;54262;44.642;-0.974;2023-04-24T03:09:26;2.30;;;1.52;;
67378;SDS011;54262;44.642;-0.974;2023-04-24T03:11:52;1.30;;;1.20;;
67378;SDS011;54262;44.642;-0.974;2023-04-24T03:14:18;1.95;;;1.58;;
67378;SDS011;54262;44.642;-0.974;2023-04-24T03:16:44;1.30;;;1.20;;
67378;SDS011;54262;44.642;-0.974;2023-04-24T03:19:10;2.35;;;1.67;;
67378;SDS011;54262;44.642;-0.974;2023-04-24T03:21:36;1.70;;;1.60;;
67378;SDS011;54262;44.642;-0.974;2023-04-24T03:24:05;1.50;;;1.25;;
67378;SDS011;54262;44.642;-0.974;2023-04-24T03:26:31;2.60;;;1.25;;
67378;SDS011;54262;44.642;-0.974;2023-04-24T03:28:57;1.98;;;1.30;;
67378;SDS011;54262;44.642;-0.974;2023-04-24T03:31:23;3.53;;;1.55;;
67378;SDS011;54262;44.642;-0.974;2023-04-24T03:33:49;5.47;;;2.25;;
67378;SDS011;54262;44.642;-0.974;2023-04-24T03:36:16;5.65;;;2.17;;
67378;SDS011;54262;44.642;-0.974;2023-04-24T03:38:44;4.85;;;3.33;;
67378;SDS011;54262;44.642;-0.974;2023-04-24T03:41:10;7.32;;;3.38;;
67378;SDS011;54262;44.642;-0.974;2023-04-24T03:43:39;3.30;;;3.00;;
67378;SDS011;54262;44.642;-0.974;2023-04-24T03:46:05;3.80;;;2.95;;
67378;SDS011;54262;44.642;-0.974;2023-04-24T03:48:34;7.88;;;3.80;;
67378;SDS011;54262;44.642;-0.974;2023-04-24T03:51:00;10.90;;;2.97;;
67378;SDS011;54262;44.642;-0.974;2023-04-24T03:53:26;5.72;;;3.45;;
67378;SDS011;54262;44.642;-0.974;2023-04-24T03:55:52;7.95;;;4.15;;
67378;SDS011;54262;44.642;-0.974;2023-04-24T03:58:18;4.60;;;3.85;;
67378;SDS011;54262;44.642;-0.974;2023-04-24T04:00:47;3.63;;;3.30;;
67378;SDS011;54262;44.642;-0.974;2023-04-24T04:03:13;5.63;;;3.80;;
67378;SDS011;54262;44.642;-0.974;2023-04-24T04:05:41;3.80;;;3.30;;
67378;SDS011;54262;44.642;-0.974;2023-04-24T04:08:07;7.18;;;3.80;;
67378;SDS011;54262;44.642;-0.974;2023-04-24T04:10:33;11.70;;;3.90;;
67378;SDS011;54262;44.642;-0.974;2023-04-24T04:12:59;8.48;;;4.30;;
67378;SDS011;54262;44.642;-0.974;2023-04-24T04:15:28;4.45;;;4.05;;
67378;SDS011;54262;44.642;-0.974;2023-04-24T04:17:54;6.07;;;3.90;;
67378;SDS011;54262;44.642;-0.974;2023-04-24T04:20:20;5.90;;;4.00;;
67378;SDS011;54262;44.642;-0.974;2023-04-24T04:22:46;4.15;;;3.85;;
67378;SDS011;54262;44.642;-0.974;2023-04-24T04:25:12;4.65;;;4.07;;
67378;SDS011;54262;44.642;-0.974;2023-04-24T04:27:39;7.80;;;4.82;;
67378;SDS011;54262;44.642;-0.974;2023-04-24T04:30:07;4.78;;;4.10;;
67378;SDS011;54262;44.642;-0.974;2023-04-24T04:32:34;5.10;;;4.32;;
67378;SDS011;54262;44.642;-0.974;2023-04-24T04:35:01;9.68;;;4.65;;
67378;SDS011;54262;44.642;-0.974;2023-04-24T04:37:32;8.18;;;4.55;;
67378;SDS011;54262;44.642;-0.974;2023-04-24T04:40:01;8.10;;;4.25;;
67378;SDS011;54262;44.642;-0.974;2023-04-24T04:42:37;13.30;;;4.25;;
67378;SDS011;54262;44.642;-0.974;2023-04-24T04:45:07;6.63;;;4.00;;
67378;SDS011;54262;44.642;-0.974;2023-04-24T04:47:34;10.90;;;3.97;;
67378;SDS011;54262;44.642;-0.974;2023-04-24T04:50:00;5.82;;;3.92;;
67378;SDS011;54262;44.642;-0.974;2023-04-24T04:52:28;7.63;;;3.92;;
67378;SDS011;54262;44.642;-0.974;2023-04-24T04:54:54;8.02;;;3.97;;
67378;SDS011;54262;44.642;-0.974;2023-04-24T04:57:20;4.07;;;3.72;;
67378;SDS011;54262;44.642;-0.974;2023-04-24T04:59:46;6.72;;;4.75;;
67378;SDS011;54262;44.642;-0.974;2023-04-24T05:02:14;6.03;;;3.85;;
67378;SDS011;54262;44.642;-0.974;2023-04-24T05:04:40;4.55;;;4.10;;
67378;SDS011;54262;44.642;-0.974;2023-04-24T05:07:09;5.53;;;4.35;;
67378;SDS011;54262;44.642;-0.974;2023-04-24T05:09:35;9.13;;;4.40;;
67378;SDS011;54262;44.642;-0.974;2023-04-24T05:12:01;9.18;;;4.15;;
67378;SDS011;54262;44.642;-0.974;2023-04-24T05:14:27;13.30;;;4.35;;
67378;SDS011;54262;44.642;-0.974;2023-04-24T05:16:53;8.35;;;4.88;;
67378;SDS011;54262;44.642;-0.974;2023-04-24T05:19:19;4.75;;;4.35;;
67378;SDS011;54262;44.642;-0.974;2023-04-24T05:21:45;5.35;;;4.80;;
67378;SDS011;54262;44.642;-0.974;2023-04-24T05:24:11;8.32;;;4.78;;
67378;SDS011;54262;44.642;-0.974;2023-04-24T05:26:37;6.25;;;4.53;;
67378;SDS011;54262;44.642;-0.974;2023-04-24T05:29:03;4.50;;;4.10;;
67378;SDS011;54262;44.642;-0.974;2023-04-24T05:31:30;5.07;;;4.55;;
67378;SDS011;54262;44.642;-0.974;2023-04-24T05:33:56;4.72;;;4.45;;
67378;SDS011;54262;44.642;-0.974;2023-04-24T05:36:22;5.45;;;5.03;;
67378;SDS011;54262;44.642;-0.974;2023-04-24T05:38:48;8.27;;;4.47;;
67378;SDS011;54262;44.642;-0.974;2023-04-24T05:41:14;7.63;;;4.85;;
67378;SDS011;54262;44.642;-0.974;2023-04-24T05:43:40;6.93;;;4.53;;
67378;SDS011;54262;44.642;-0.974;2023-04-24T05:46:06;4.68;;;4.32;;
67378;SDS011;54262;44.642;-0.974;2023-04-24T05:48:32;6.88;;;4.75;;
67378;SDS011;54262;44.642;-0.974;2023-04-24T05:50:58;5.07;;;4.68;;
67378;SDS011;54262;44.642;-0.974;2023-04-24T05:53:24;6.97;;;4.75;;
67378;SDS011;54262;44.642;-0.974;2023-04-24T05:55:50;7.30;;;5.15;;
67378;SDS011;54262;44.642;-0.974;2023-04-24T05:58:16;9.30;;;6.30;;
67378;SDS011;54262;44.642;-0.974;2023-04-24T06:00:42;6.30;;;5.80;;
67378;SDS011;54262;44.642;-0.974;2023-04-24T06:03:13;11.77;;;6.13;;
67378;SDS011;54262;44.642;-0.974;2023-04-24T06:05:39;17.77;;;6.40;;
67378;SDS011;54262;44.642;-0.974;2023-04-24T06:08:08;11.50;;;5.90;;
67378;SDS011;54262;44.642;-0.974;2023-04-24T06:10:35;11.23;;;5.63;;
67378;SDS011;54262;44.642;-0.974;2023-04-24T06:13:01;7.10;;;6.05;;
67378;SDS011;54262;44.642;-0.974;2023-04-24T06:18:22;6.40;;;5.85;;
67378;SDS011;54262;44.642;-0.974;2023-04-24T06:20:58;9.52;;;5.72;;
67378;SDS011;54262;44.642;-0.974;2023-04-24T06:23:28;10.00;;;5.80;;
67378;SDS011;54262;44.642;-0.974;2023-04-24T06:25:58;6.75;;;6.25;;
67378;SDS011;54262;44.642;-0.974;2023-04-24T06:28:24;16.70;;;6.50;;
67378;SDS011;54262;44.642;-0.974;2023-04-24T06:30:55;7.63;;;6.88;;
67378;SDS011;54262;44.642;-0.974;2023-04-24T06:33:22;7.38;;;6.45;;
67378;SDS011;54262;44.642;-0.974;2023-04-24T06:35:50;11.20;;;8.75;;
67378;SDS011;54262;44.642;-0.974;2023-04-24T06:38:25;8.32;;;7.28;;
67378;SDS011;54262;44.642;-0.974;2023-04-24T06:40:55;11.35;;;5.68;;
67378;SDS011;54262;44.642;-0.974;2023-04-24T06:43:22;9.88;;;5.15;;
67378;SDS011;54262;44.642;-0.974;2023-04-24T06:45:49;8.20;;;5.20;;
67378;SDS011;54262;44.642;-0.974;2023-04-24T06:48:16;5.45;;;4.95;;
67378;SDS011;54262;44.642;-0.974;2023-04-24T06:50:43;11.70;;;6.10;;
67378;SDS011;54262;44.642;-0.974;2023-04-24T06:53:12;7.25;;;6.75;;
67378;SDS011;54262;44.642;-0.974;2023-04-24T06:55:39;6.70;;;6.10;;
67378;SDS011;54262;44.642;-0.974;2023-04-24T06:58:06;6.35;;;5.75;;
67378;SDS011;54262;44.642;-0.974;2023-04-24T07:00:32;8.80;;;7.95;;
67378;SDS011;54262;44.642;-0.974;2023-04-24T07:02:58;7.57;;;6.63;;
67378;SDS011;54262;44.642;-0.974;2023-04-24T07:05:26;6.65;;;4.80;;
67378;SDS011;54262;44.642;-0.974;2023-04-24T07:07:53;9.20;;;7.25;;
67378;SDS011;54262;44.642;-0.974;2023-04-24T07:10:21;6.45;;;5.88;;
67378;SDS011;54262;44.642;-0.974;2023-04-24T07:12:48;7.57;;;6.75;;
67378;SDS011;54262;44.642;-0.974;2023-04-24T07:15:14;7.50;;;7.00;;
67378;SDS011;54262;44.642;-0.974;2023-04-24T07:17:41;3.05;;;2.95;;
67378;SDS011;54262;44.642;-0.974;2023-04-24T07:20:11;4.65;;;4.35;;
67378;SDS011;54262;44.642;-0.974;2023-04-24T07:22:37;3.95;;;3.58;;
67378;SDS011;54262;44.642;-0.974;2023-04-24T07:25:04;3.60;;;3.40;;
67378;SDS011;54262;44.642;-0.974;2023-04-24T07:27:30;3.88;;;3.65;;
67378;SDS011;54262;44.642;-0.974;2023-04-24T07:29:56;32.13;;;14.98;;
67378;SDS011;54262;44.642;-0.974;2023-04-24T07:32:22;5.18;;;4.68;;
67378;SDS011;54262;44.642;-0.974;2023-04-24T07:34:48;5.30;;;4.20;;
67378;SDS011;54262;44.642;-0.974;2023-04-24T07:37:14;5.95;;;5.40;;
67378;SDS011;54262;44.642;-0.974;2023-04-24T07:39:40;5.63;;;5.03;;
67378;SDS011;54262;44.642;-0.974;2023-04-24T07:42:06;9.88;;;6.25;;
67378;SDS011;54262;44.642;-0.974;2023-04-24T07:44:32;10.10;;;5.40;;
67378;SDS011;54262;44.642;-0.974;2023-04-24T07:46:58;13.98;;;5.57;;
67378;SDS011;54262;44.642;-0.974;2023-04-24T07:49:24;12.20;;;6.60;;
67378;SDS011;54262;44.642;-0.974;2023-04-24T07:51:54;15.38;;;7.00;;
67378;SDS011;54262;44.642;-0.974;2023-04-24T07:54:20;8.50;;;7.03;;
67378;SDS011;54262;44.642;-0.974;2023-04-24T07:56:46;10.80;;;7.53;;
67378;SDS011;54262;44.642;-0.974;2023-04-24T07:59:12;18.00;;;7.20;;
67378;SDS011;54262;44.642;-0.974;2023-04-24T08:01:38;9.98;;;6.82;;
67378;SDS011;54262;44.642;-0.974;2023-04-24T08:04:04;10.45;;;6.47;;
67378;SDS011;54262;44.642;-0.974;2023-04-24T08:06:33;10.52;;;7.00;;
67378;SDS011;54262;44.642;-0.974;2023-04-24T08:08:59;9.52;;;6.53;;
67378;SDS011;54262;44.642;-0.974;2023-04-24T08:11:28;10.43;;;5.43;;
67378;SDS011;54262;44.642;-0.974;2023-04-24T08:13:54;15.32;;;6.15;;
67378;SDS011;54262;44.642;-0.974;2023-04-24T08:16:20;9.23;;;6.38;;
67378;SDS011;54262;44.642;-0.974;2023-04-24T08:18:46;12.10;;;6.80;;
67378;SDS011;54262;44.642;-0.974;2023-04-24T08:21:37;11.85;;;6.57;;
67378;SDS011;54262;44.642;-0.974;2023-04-24T08:24:09;8.48;;;5.57;;
67378;SDS011;54262;44.642;-0.974;2023-04-24T08:26:35;7.93;;;6.20;;
67378;SDS011;54262;44.642;-0.974;2023-04-24T08:29:07;15.38;;;6.40;;
67378;SDS011;54262;44.642;-0.974;2023-04-24T08:31:39;5.30;;;4.80;;
67378;SDS011;54262;44.642;-0.974;2023-04-24T08:34:20;7.38;;;5.50;;
67378;SDS011;54262;44.642;-0.974;2023-04-24T08:36:59;9.75;;;5.10;;
67378;SDS011;54262;44.642;-0.974;2023-04-24T08:39:27;15.80;;;6.55;;
67378;SDS011;54262;44.642;-0.974;2023-04-24T08:41:54;17.17;;;6.68;;
67378;SDS011;54262;44.642;-0.974;2023-04-24T08:44:20;10.40;;;6.53;;
67378;SDS011;54262;44.642;-0.974;2023-04-24T08:46:47;9.23;;;5.53;;
67378;SDS011;54262;44.642;-0.974;2023-04-24T08:49:14;10.65;;;5.45;;
67378;SDS011;54262;44.642;-0.974;2023-04-24T08:51:43;5.70;;;3.00;;
67378;SDS011;54262;44.642;-0.974;2023-04-24T08:54:13;6.15;;;3.17;;
67378;SDS011;54262;44.642;-0.974;2023-04-24T08:56:39;6.57;;;2.50;;
67378;SDS011;54262;44.642;-0.974;2023-04-24T08:59:06;4.72;;;3.60;;
67378;SDS011;54262;44.642;-0.974;2023-04-24T09:01:32;3.38;;;3.05;;
67378;SDS011;54262;44.642;-0.974;2023-04-24T09:04:00;9.30;;;3.10;;
67378;SDS011;54262;44.642;-0.974;2023-04-24T09:06:28;3.17;;;2.47;;
67378;SDS011;54262;44.642;-0.974;2023-04-24T09:08:57;3.85;;;3.13;;
67378;SDS011;54262;44.642;-0.974;2023-04-24T09:11:24;5.72;;;4.00;;
67378;SDS011;54262;44.642;-0.974;2023-04-24T09:13:53;3.17;;;2.70;;
67378;SDS011;54262;44.642;-0.974;2023-04-24T09:16:20;5.93;;;3.25;;
67378;SDS011;54262;44.642;-0.974;2023-04-24T09:18:48;6.05;;;3.85;;
67378;SDS011;54262;44.642;-0.974;2023-04-24T09:21:14;4.25;;;3.92;;
67378;SDS011;54262;44.642;-0.974;2023-04-24T09:23:40;6.43;;;3.25;;
67378;SDS011;54262;44.642;-0.974;2023-04-24T09:26:06;10.43;;;3.50;;
67378;SDS011;54262;44.642;-0.974;2023-04-24T09:28:35;3.88;;;3.40;;
67378;SDS011;54262;44.642;-0.974;2023-04-24T09:31:09;10.15;;;3.17;;
67378;SDS011;54262;44.642;-0.974;2023-04-24T09:33:35;4.57;;;3.50;;
67378;SDS011;54262;44.642;-0.974;2023-04-24T09:36:02;5.45;;;3.55;;
67378;SDS011;54262;44.642;-0.974;2023-04-24T09:38:35;4.25;;;2.95;;
67378;SDS011;54262;44.642;-0.974;2023-04-24T09:41:02;4.10;;;3.38;;
67378;SDS011;54262;44.642;-0.974;2023-04-24T09:43:30;4.38;;;3.20;;
67378;SDS011;54262;44.642;-0.974;2023-04-24T09:45:57;3.80;;;3.15;;
67378;SDS011;54262;44.642;-0.974;2023-04-24T09:48:30;3.10;;;2.70;;
67378;SDS011;54262;44.642;-0.974;2023-04-24T09:50:56;3.70;;;3.40;;
67378;SDS011;54262;44.642;-0.974;2023-04-24T09:53:23;4.68;;;3.53;;
67378;SDS011;54262;44.642;-0.974;2023-04-24T09:55:50;3.38;;;3.08;;
67378;SDS011;54262;44.642;-0.974;2023-04-24T09:58:18;4.43;;;3.35;;
67378;SDS011;54262;44.642;-0.974;2023-04-24T10:00:44;11.35;;;3.45;;
67378;SDS011;54262;44.642;-0.974;2023-04-24T10:03:11;5.18;;;2.83;;
67378;SDS011;54262;44.642;-0.974;2023-04-24T10:05:37;5.38;;;2.88;;
67378;SDS011;54262;44.642;-0.974;2023-04-24T10:08:10;7.35;;;3.35;;
67378;SDS011;54262;44.642;-0.974;2023-04-24T10:10:42;5.97;;;3.40;;
67378;SDS011;54262;44.642;-0.974;2023-04-24T10:13:12;6.82;;;3.05;;
67378;SDS011;54262;44.642;-0.974;2023-04-24T10:15:41;7.88;;;3.90;;
67378;SDS011;54262;44.642;-0.974;2023-04-24T10:18:07;5.40;;;2.80;;
67378;SDS011;54262;44.642;-0.974;2023-04-24T10:20:34;6.13;;;2.80;;
67378;SDS011;54262;44.642;-0.974;2023-04-24T10:23:01;8.48;;;2.53;;
67378;SDS011;54262;44.642;-0.974;2023-04-24T10:25:28;4.18;;;3.08;;
67378;SDS011;54262;44.642;-0.974;2023-04-24T10:27:55;4.05;;;2.65;;
67378;SDS011;54262;44.642;-0.974;2023-04-24T10:30:26;6.45;;;3.15;;
67378;SDS011;54262;44.642;-0.974;2023-04-24T10:32:52;3.20;;;2.70;;
67378;SDS011;54262;44.642;-0.974;2023-04-24T10:35:19;6.25;;;3.40;;
67378;SDS011;54262;44.642;-0.974;2023-04-24T10:37:52;4.90;;;2.70;;
67378;SDS011;54262;44.642;-0.974;2023-04-24T10:40:25;5.97;;;2.75;;
67378;SDS011;54262;44.642;-0.974;2023-04-24T10:42:51;6.82;;;2.40;;
67378;SDS011;54262;44.642;-0.974;2023-04-24T10:45:38;2.63;;;2.42;;
67378;SDS011;54262;44.642;-0.974;2023-04-24T10:48:05;8.57;;;3.05;;
67378;SDS011;54262;44.642;-0.974;2023-04-24T10:50:45;3.83;;;2.75;;
67378;SDS011;54262;44.642;-0.974;2023-04-24T10:53:18;5.03;;;2.40;;
67378;SDS011;54262;44.642;-0.974;2023-04-24T10:55:49;2.47;;;2.25;;
67378;SDS011;54262;44.642;-0.974;2023-04-24T10:58:15;5.07;;;2.22;;
67378;SDS011;54262;44.642;-0.974;2023-04-24T11:00:42;8.07;;;3.25;;
67378;SDS011;54262;44.642;-0.974;2023-04-24T11:03:25;2.40;;;2.25;;
67378;SDS011;54262;44.642;-0.974;2023-04-24T11:08:22;3.25;;;2.45;;
67378;SDS011;54262;44.642;-0.974;2023-04-24T11:11:00;2.35;;;2.15;;
67378;SDS011;54262;44.642;-0.974;2023-04-24T11:13:27;3.33;;;2.33;;
67378;SDS011;54262;44.642;-0.974;2023-04-24T11:18:43;3.03;;;2.28;;
67378;SDS011;54262;44.642;-0.974;2023-04-24T11:21:15;4.13;;;2.13;;
67378;SDS011;54262;44.642;-0.974;2023-04-24T11:23:42;2.15;;;2.05;;
67378;SDS011;54262;44.642;-0.974;2023-04-24T11:26:11;4.57;;;2.10;;
67378;SDS011;54262;44.642;-0.974;2023-04-24T11:28:43;3.30;;;2.20;;
67378;SDS011;54262;44.642;-0.974;2023-04-24T11:34:14;2.95;;;2.70;;
67378;SDS011;54262;44.642;-0.974;2023-04-24T11:36:42;2.22;;;2.13;;
67378;SDS011;54262;44.642;-0.974;2023-04-24T11:39:09;4.28;;;2.13;;
67378;SDS011;54262;44.642;-0.974;2023-04-24T11:41:36;3.00;;;2.05;;
67378;SDS011;54262;44.642;-0.974;2023-04-24T11:44:02;4.30;;;1.90;;
67378;SDS011;54262;44.642;-0.974;2023-04-24T11:46:29;1.98;;;1.88;;
67378;SDS011;54262;44.642;-0.974;2023-04-24T11:48:56;1.60;;;1.50;;
67378;SDS011;54262;44.642;-0.974;2023-04-24T11:51:23;3.22;;;2.08;;
67378;SDS011;54262;44.642;-0.974;2023-04-24T11:53:50;2.63;;;1.73;;
67378;SDS011;54262;44.642;-0.974;2023-04-24T11:56:17;2.90;;;2.20;;
67378;SDS011;54262;44.642;-0.974;2023-04-24T11:58:44;1.17;;;1.13;;
67378;SDS011;54262;44.642;-0.974;2023-04-24T12:01:14;2.20;;;1.77;;
67378;SDS011;54262;44.642;-0.974;2023-04-24T12:03:41;3.08;;;2.08;;
67378;SDS011;54262;44.642;-0.974;2023-04-24T12:06:09;3.65;;;1.70;;
67378;SDS011;54262;44.642;-0.974;2023-04-24T12:08:36;2.17;;;1.52;;
67378;SDS011;54262;44.642;-0.974;2023-04-24T12:11:11;4.78;;;1.77;;
67378;SDS011;54262;44.642;-0.974;2023-04-24T12:13:37;4.50;;;2.13;;
67378;SDS011;54262;44.642;-0.974;2023-04-24T12:16:06;2.83;;;1.92;;
67378;SDS011;54262;44.642;-0.974;2023-04-24T12:18:42;2.13;;;2.03;;
67378;SDS011;54262;44.642;-0.974;2023-04-24T12:21:19;2.10;;;1.90;;
67378;SDS011;54262;44.642;-0.974;2023-04-24T12:23:45;3.33;;;1.65;;
67378;SDS011;54262;44.642;-0.974;2023-04-24T12:26:12;3.05;;;1.30;;
67378;SDS011;54262;44.642;-0.974;2023-04-24T12:28:38;3.03;;;1.20;;
67378;SDS011;54262;44.642;-0.974;2023-04-24T12:31:05;2.55;;;1.33;;
67378;SDS011;54262;44.642;-0.974;2023-04-24T12:33:35;4.00;;;1.30;;
67378;SDS011;54262;44.642;-0.974;2023-04-24T12:36:01;3.92;;;1.48;;
67378;SDS011;54262;44.642;-0.974;2023-04-24T12:38:28;1.40;;;0.90;;
67378;SDS011;54262;44.642;-0.974;2023-04-24T12:41:04;4.00;;;2.08;;
67378;SDS011;54262;44.642;-0.974;2023-04-24T12:43:30;6.65;;;1.55;;
67378;SDS011;54262;44.642;-0.974;2023-04-24T12:45:56;1.60;;;1.50;;
67378;SDS011;54262;44.642;-0.974;2023-04-24T12:48:24;4.00;;;1.90;;
67378;SDS011;54262;44.642;-0.974;2023-04-24T12:50:50;1.67;;;0.95;;
67378;SDS011;54262;44.642;-0.974;2023-04-24T12:53:16;5.28;;;2.38;;
67378;SDS011;54262;44.642;-0.974;2023-04-24T12:55:42;3.95;;;1.00;;
67378;SDS011;54262;44.642;-0.974;2023-04-24T12:58:09;5.38;;;2.15;;
67378;SDS011;54262;44.642;-0.974;2023-04-24T13:00:35;1.63;;;1.33;;
67378;SDS011;54262;44.642;-0.974;2023-04-24T13:03:01;7.05;;;2.33;;
67378;SDS011;54262;44.642;-0.974;2023-04-24T13:05:27;0.80;;;0.80;;
67378;SDS011;54262;44.642;-0.974;2023-04-24T13:07:53;5.35;;;1.33;;
67378;SDS011;54262;44.642;-0.974;2023-04-24T13:10:19;1.90;;;1.73;;
67378;SDS011;54262;44.642;-0.974;2023-04-24T13:12:48;1.63;;;1.35;;
67378;SDS011;54262;44.642;-0.974;2023-04-24T13:15:14;3.70;;;1.85;;
67378;SDS011;54262;44.642;-0.974;2023-04-24T13:17:43;3.40;;;1.20;;
67378;SDS011;54262;44.642;-0.974;2023-04-24T13:20:09;2.15;;;1.40;;
67378;SDS011;54262;44.642;-0.974;2023-04-24T13:22:36;3.58;;;0.70;;
67378;SDS011;54262;44.642;-0.974;2023-04-24T13:25:02;6.68;;;1.83;;
67378;SDS011;54262;44.642;-0.974;2023-04-24T13:27:28;11.73;;;2.35;;
67378;SDS011;54262;44.642;-0.974;2023-04-24T13:29:54;2.28;;;0.50;;
67378;SDS011;54262;44.642;-0.974;2023-04-24T13:32:20;5.30;;;1.50;;
67378;SDS011;54262;44.642;-0.974;2023-04-24T13:34:46;4.30;;;1.27;;
67378;SDS011;54262;44.642;-0.974;2023-04-24T13:37:12;2.42;;;0.90;;
67378;SDS011;54262;44.642;-0.974;2023-04-24T13:39:38;1.30;;;1.20;;
67378;SDS011;54262;44.642;-0.974;2023-04-24T13:42:06;1.48;;;1.33;;
67378;SDS011;54262;44.642;-0.974;2023-04-24T13:44:32;5.25;;;1.83;;
67378;SDS011;54262;44.642;-0.974;2023-04-24T13:46:58;11.15;;;4.00;;
67378;SDS011;54262;44.642;-0.974;2023-04-24T13:49:24;3.28;;;1.50;;
67378;SDS011;54262;44.642;-0.974;2023-04-24T13:51:51;1.50;;;1.27;;
67378;SDS011;54262;44.642;-0.974;2023-04-24T13:54:17;2.15;;;1.50;;
67378;SDS011;54262;44.642;-0.974;2023-04-24T13:56:43;4.07;;;1.05;;
67378;SDS011;54262;44.642;-0.974;2023-04-24T13:59:09;1.52;;;0.80;;
67378;SDS011;54262;44.642;-0.974;2023-04-24T14:01:35;1.75;;;1.20;;
67378;SDS011;54262;44.642;-0.974;2023-04-24T14:04:01;3.97;;;1.35;;
67378;SDS011;54262;44.642;-0.974;2023-04-24T14:06:27;5.10;;;1.00;;
67378;SDS011;54262;44.642;-0.974;2023-04-24T14:08:53;8.60;;;0.98;;
67378;SDS011;54262;44.642;-0.974;2023-04-24T14:11:19;3.25;;;1.00;;
67378;SDS011;54262;44.642;-0.974;2023-04-24T14:13:48;0.40;;;0.38;;
67378;SDS011;54262;44.642;-0.974;2023-04-24T14:16:14;3.22;;;1.05;;
67378;SDS011;54262;44.642;-0.974;2023-04-24T14:18:42;1.10;;;1.00;;
67378;SDS011;54262;44.642;-0.974;2023-04-24T14:21:11;2.10;;;0.70;;
67378;SDS011;54262;44.642;-0.974;2023-04-24T14:23:37;4.35;;;1.02;;
67378;SDS011;54262;44.642;-0.974;2023-04-24T14:26:03;1.75;;;0.70;;
67378;SDS011;54262;44.642;-0.974;2023-04-24T14:28:29;1.40;;;0.60;;
67378;SDS011;54262;44.642;-0.974;2023-04-24T14:30:55;6.65;;;0.95;;
67378;SDS011;54262;44.642;-0.974;2023-04-24T14:33:21;2.83;;;0.98;;
67378;SDS011;54262;44.642;-0.974;2023-04-24T14:35:47;0.73;;;0.57;;
67378;SDS011;54262;44.642;-0.974;2023-04-24T14:38:14;5.95;;;0.70;;
67378;SDS011;54262;44.642;-0.974;2023-04-24T14:40:40;1.23;;;0.60;;
67378;SDS011;54262;44.642;-0.974;2023-04-24T14:43:06;6.80;;;0.70;;
67378;SDS011;54262;44.642;-0.974;2023-04-24T14:45:32;1.27;;;0.63;;